sensor_id;sensor_type;location;lat;lon;timestamp;pressure;altitude;pressure_sealevel;temperature;humidity
2339;BME280;1180;51.438;6.978;2024-03-02T00:01:57;98779.97;;;11.20;62.23
2339;BME280;1180;51.438;6.978;2024-03-02T00:04:23;98775.97;;;11.47;62.04
2339;BME280;1180;51.438;6.978;2024-03-02T00:06:51;98765.16;;;11.53;61.16
2339;BME280;1180;51.438;6.978;2024-03-02T00:09:19;98771.91;;;11.54;61.41
2339;BME280;1180;51.438;6.978;2024-03-02T00:11:45;98767.59;;;11.54;61.59
2339;BME280;1180;51.438;6.978;2024-03-02T00:14:11;98790.66;;;11.25;62.47
2339;BME280;1180;51.438;6.978;2024-03-02T00:16:36;98774.16;;;11.18;62.82
2339;BME280;1180;51.438;6.978;2024-03-02T00:19:05;98768.13;;;11.38;62.45
2339;BME280;1180;51.438;6.978;2024-03-02T00:21:33;98754.06;;;11.43;62.19
2339;BME280;1180;51.438;6.978;2024-03-02T00:23:59;98741.84;;;11.05;62.92
2339;BME280;1180;51.438;6.978;2024-03-02T00:26:25;98748.34;;;11.09;63.03
2339;BME280;1180;51.438;6.978;2024-03-02T00:28:54;98749.59;;;11.35;62.49
2339;BME280;1180;51.438;6.978;2024-03-02T00:31:22;98749.59;;;11.35;62.16
2339;BME280;1180;51.438;6.978;2024-03-02T00:33:48;98736.91;;;11.33;62.30
2339;BME280;1180;51.438;6.978;2024-03-02T00:36:25;98731.06;;;11.21;62.38
2339;BME280;1180;51.438;6.978;2024-03-02T00:38:52;98738.34;;;11.16;62.67
2339;BME280;1180;51.438;6.978;2024-03-02T00:41:29;98740.13;;;11.25;62.88
2339;BME280;1180;51.438;6.978;2024-03-02T00:43:59;98733.63;;;11.21;62.56
2339;BME280;1180;51.438;6.978;2024-03-02T00:46:27;98741.34;;;11.41;62.30
2339;BME280;1180;51.438;6.978;2024-03-02T00:48:55;98736.34;;;11.39;61.98
2339;BME280;1180;51.438;6.978;2024-03-02T00:51:23;98728.38;;;11.33;61.93
2339;BME280;1180;51.438;6.978;2024-03-02T00:53:53;98727.03;;;11.38;62.10
2339;BME280;1180;51.438;6.978;2024-03-02T00:56:21;98729.72;;;11.47;61.84
2339;BME280;1180;51.438;6.978;2024-03-02T00:58:47;98732.97;;;11.49;61.69
2339;BME280;1180;51.438;6.978;2024-03-02T01:01:13;98745.97;;;11.47;61.51
2339;BME280;1180;51.438;6.978;2024-03-02T01:03:38;98746.25;;;11.74;60.84
2339;BME280;1180;51.438;6.978;2024-03-02T01:06:04;98739.22;;;11.76;60.50
2339;BME280;1180;51.438;6.978;2024-03-02T01:08:29;98740.56;;;11.70;60.73
2339;BME280;1180;51.438;6.978;2024-03-02T01:10:56;98742.84;;;11.83;60.63
2339;BME280;1180;51.438;6.978;2024-03-02T01:13:22;98745.13;;;11.96;59.95
2339;BME280;1180;51.438;6.978;2024-03-02T01:15:49;98738.94;;;11.98;59.57
2339;BME280;1180;51.438;6.978;2024-03-02T01:18:14;98733.63;;;11.90;59.86
2339;BME280;1180;51.438;6.978;2024-03-02T01:20:40;98746.38;;;12.02;59.39
2339;BME280;1180;51.438;6.978;2024-03-02T01:23:05;98731.75;;;11.92;59.67
2339;BME280;1180;51.438;6.978;2024-03-02T01:25:31;98740.56;;;11.90;59.67
2339;BME280;1180;51.438;6.978;2024-03-02T01:27:56;98727.97;;;11.87;59.26
2339;BME280;1180;51.438;6.978;2024-03-02T01:30:21;98738.38;;;11.95;59.25
2339;BME280;1180;51.438;6.978;2024-03-02T01:32:47;98728.78;;;12.07;58.95
2339;BME280;1180;51.438;6.978;2024-03-02T01:35:13;98728.41;;;12.02;58.72
2339;BME280;1180;51.438;6.978;2024-03-02T01:37:40;98730.03;;;12.03;58.70
2339;BME280;1180;51.438;6.978;2024-03-02T01:40:06;98730.00;;;12.12;58.47
2339;BME280;1180;51.438;6.978;2024-03-02T01:42:38;98721.72;;;12.19;58.21
2339;BME280;1180;51.438;6.978;2024-03-02T01:45:07;98716.88;;;12.16;58.11
2339;BME280;1180;51.438;6.978;2024-03-02T01:47:34;98716.03;;;12.15;58.07
2339;BME280;1180;51.438;6.978;2024-03-02T01:50:00;98719.97;;;12.09;57.84
2339;BME280;1180;51.438;6.978;2024-03-02T01:52:27;98719.56;;;12.14;57.67
2339;BME280;1180;51.438;6.978;2024-03-02T01:54:52;98704.97;;;12.15;57.77
2339;BME280;1180;51.438;6.978;2024-03-02T01:57:18;98711.06;;;11.94;58.04
2339;BME280;1180;51.438;6.978;2024-03-02T01:59:44;98712.56;;;11.77;58.73
2339;BME280;1180;51.438;6.978;2024-03-02T02:02:09;98712.13;;;11.91;58.43
2339;BME280;1180;51.438;6.978;2024-03-02T02:04:35;98710.78;;;11.87;58.49
2339;BME280;1180;51.438;6.978;2024-03-02T02:07:00;98703.22;;;11.85;58.41
2339;BME280;1180;51.438;6.978;2024-03-02T02:09:25;98705.34;;;12.00;58.16
2339;BME280;1180;51.438;6.978;2024-03-02T02:11:51;98696.44;;;12.04;58.31
2339;BME280;1180;51.438;6.978;2024-03-02T02:14:17;98703.63;;;12.01;58.42
2339;BME280;1180;51.438;6.978;2024-03-02T02:16:42;98703.72;;;11.99;58.42
2339;BME280;1180;51.438;6.978;2024-03-02T02:19:09;98702.41;;;11.75;58.93
2339;BME280;1180;51.438;6.978;2024-03-02T02:21:35;98710.38;;;11.82;59.13
2339;BME280;1180;51.438;6.978;2024-03-02T02:24:01;98715.13;;;11.96;58.64
2339;BME280;1180;51.438;6.978;2024-03-02T02:26:28;98710.78;;;12.07;58.74
2339;BME280;1180;51.438;6.978;2024-03-02T02:28:54;98722.03;;;12.06;58.86
2339;BME280;1180;51.438;6.978;2024-03-02T02:31:19;98718.78;;;12.04;58.29
2339;BME280;1180;51.438;6.978;2024-03-02T02:33:46;98723.75;;;12.15;58.20
2339;BME280;1180;51.438;6.978;2024-03-02T02:36:11;98719.66;;;12.22;57.80
2339;BME280;1180;51.438;6.978;2024-03-02T02:38:39;98714.50;;;12.32;57.64
2339;BME280;1180;51.438;6.978;2024-03-02T02:41:05;98718.47;;;12.26;57.78
2339;BME280;1180;51.438;6.978;2024-03-02T02:43:31;98718.72;;;12.23;57.77
2339;BME280;1180;51.438;6.978;2024-03-02T02:45:56;98723.91;;;12.13;58.00
2339;BME280;1180;51.438;6.978;2024-03-02T02:48:21;98720.22;;;12.26;57.48
2339;BME280;1180;51.438;6.978;2024-03-02T02:50:47;98720.22;;;12.16;58.04
2339;BME280;1180;51.438;6.978;2024-03-02T02:53:12;98702.09;;;12.27;57.50
2339;BME280;1180;51.438;6.978;2024-03-02T02:55:39;98713.44;;;12.35;57.63
2339;BME280;1180;51.438;6.978;2024-03-02T02:58:09;98708.56;;;12.32;57.44
2339;BME280;1180;51.438;6.978;2024-03-02T03:00:34;98710.63;;;12.18;57.38
2339;BME280;1180;51.438;6.978;2024-03-02T03:02:59;98715.09;;;12.16;57.69
2339;BME280;1180;51.438;6.978;2024-03-02T03:05:25;98712.25;;;12.19;58.10
2339;BME280;1180;51.438;6.978;2024-03-02T03:07:50;98700.72;;;12.23;57.41
2339;BME280;1180;51.438;6.978;2024-03-02T03:10:16;98706.53;;;12.25;57.52
2339;BME280;1180;51.438;6.978;2024-03-02T03:12:42;98707.47;;;12.34;57.25
2339;BME280;1180;51.438;6.978;2024-03-02T03:15:08;98700.00;;;12.41;57.25
2339;BME280;1180;51.438;6.978;2024-03-02T03:17:34;98710.81;;;12.45;57.16
2339;BME280;1180;51.438;6.978;2024-03-02T03:20:01;98710.53;;;12.48;57.14
2339;BME280;1180;51.438;6.978;2024-03-02T03:22:26;98708.06;;;12.56;57.00
2339;BME280;1180;51.438;6.978;2024-03-02T03:24:52;98707.97;;;12.48;56.61
2339;BME280;1180;51.438;6.978;2024-03-02T03:27:18;98715.72;;;12.38;57.05
2339;BME280;1180;51.438;6.978;2024-03-02T03:29:44;98718.00;;;12.41;56.82
2339;BME280;1180;51.438;6.978;2024-03-02T03:32:10;98709.88;;;12.46;57.13
2339;BME280;1180;51.438;6.978;2024-03-02T03:34:37;98723.00;;;12.42;57.31
2339;BME280;1180;51.438;6.978;2024-03-02T03:37:02;98715.69;;;12.48;56.99
2339;BME280;1180;51.438;6.978;2024-03-02T03:39:28;98724.50;;;12.45;56.96
2339;BME280;1180;51.438;6.978;2024-03-02T03:41:54;98729.63;;;12.45;57.19
2339;BME280;1180;51.438;6.978;2024-03-02T03:44:19;98732.34;;;12.44;57.14
2339;BME280;1180;51.438;6.978;2024-03-02T03:46:45;98727.75;;;12.37;57.15
2339;BME280;1180;51.438;6.978;2024-03-02T03:49:10;98726.38;;;12.43;57.33
2339;BME280;1180;51.438;6.978;2024-03-02T03:51:35;98729.06;;;12.51;57.16
2339;BME280;1180;51.438;6.978;2024-03-02T03:54:01;98734.88;;;12.53;56.95
2339;BME280;1180;51.438;6.978;2024-03-02T03:56:26;98729.72;;;12.53;56.61
2339;BME280;1180;51.438;6.978;2024-03-02T03:58:52;98730.69;;;12.52;57.25
2339;BME280;1180;51.438;6.978;2024-03-02T04:01:17;98721.22;;;12.53;57.11
2339;BME280;1180;51.438;6.978;2024-03-02T04:03:43;98728.41;;;12.49;57.21
2339;BME280;1180;51.438;6.978;2024-03-02T04:06:08;98733.56;;;12.39;57.29
2339;BME280;1180;51.438;6.978;2024-03-02T04:08:33;98734.81;;;12.35;57.36
2339;BME280;1180;51.438;6.978;2024-03-02T04:11:00;98734.50;;;12.38;57.14
2339;BME280;1180;51.438;6.978;2024-03-02T04:13:25;98737.66;;;12.32;57.17
2339;BME280;1180;51.438;6.978;2024-03-02T04:15:51;98726.31;;;12.15;57.96
2339;BME280;1180;51.438;6.978;2024-03-02T04:18:16;98735.41;;;11.99;58.59
2339;BME280;1180;51.438;6.978;2024-03-02T04:20:41;98737.44;;;12.06;58.26
2339;BME280;1180;51.438;6.978;2024-03-02T04:23:07;98740.13;;;12.14;58.42
2339;BME280;1180;51.438;6.978;2024-03-02T04:25:33;98742.44;;;12.17;57.97
2339;BME280;1180;51.438;6.978;2024-03-02T04:27:58;98739.72;;;12.19;57.83
2339;BME280;1180;51.438;6.978;2024-03-02T04:30:23;98749.59;;;12.23;58.12
2339;BME280;1180;51.438;6.978;2024-03-02T04:32:50;98746.91;;;12.15;58.11
2339;BME280;1180;51.438;6.978;2024-03-02T04:35:15;98748.81;;;12.13;58.50
2339;BME280;1180;51.438;6.978;2024-03-02T04:37:41;98749.06;;;12.10;58.23
2339;BME280;1180;51.438;6.978;2024-03-02T04:40:08;98745.16;;;12.06;58.62
2339;BME280;1180;51.438;6.978;2024-03-02T04:42:34;98748.13;;;12.01;58.49
2339;BME280;1180;51.438;6.978;2024-03-02T04:44:59;98746.47;;;12.00;58.73
2339;BME280;1180;51.438;6.978;2024-03-02T04:47:25;98750.16;;;11.97;59.34
2339;BME280;1180;51.438;6.978;2024-03-02T04:49:50;98753.00;;;11.94;59.01
2339;BME280;1180;51.438;6.978;2024-03-02T04:52:16;98751.63;;;11.90;59.35
2339;BME280;1180;51.438;6.978;2024-03-02T04:54:43;98751.63;;;11.90;59.49
2339;BME280;1180;51.438;6.978;2024-03-02T04:57:27;98764.09;;;11.85;59.25
2339;BME280;1180;51.438;6.978;2024-03-02T04:59:52;98758.41;;;11.81;59.47
2339;BME280;1180;51.438;6.978;2024-03-02T05:02:17;98765.97;;;11.83;59.76
2339;BME280;1180;51.438;6.978;2024-03-02T05:04:43;98761.66;;;11.83;59.77
2339;BME280;1180;51.438;6.978;2024-03-02T05:07:08;98751.66;;;11.80;59.96
2339;BME280;1180;51.438;6.978;2024-03-02T05:09:33;98740.56;;;11.70;59.66
2339;BME280;1180;51.438;6.978;2024-03-02T05:11:59;98754.06;;;11.72;60.08
2339;BME280;1180;51.438;6.978;2024-03-02T05:14:40;98751.94;;;11.77;60.36
2339;BME280;1180;51.438;6.978;2024-03-02T05:17:06;98743.28;;;11.78;59.95
2339;BME280;1180;51.438;6.978;2024-03-02T05:19:31;98755.56;;;11.55;60.39
2339;BME280;1180;51.438;6.978;2024-03-02T05:21:57;98761.91;;;11.61;60.64
2339;BME280;1180;51.438;6.978;2024-03-02T05:24:22;98772.06;;;11.72;60.53
2339;BME280;1180;51.438;6.978;2024-03-02T05:26:47;98769.91;;;11.77;60.29
2339;BME280;1180;51.438;6.978;2024-03-02T05:29:13;98764.09;;;11.65;60.05
2339;BME280;1180;51.438;6.978;2024-03-02T05:31:39;98752.88;;;11.56;60.41
2339;BME280;1180;51.438;6.978;2024-03-02T05:34:05;98755.81;;;11.52;60.75
2339;BME280;1180;51.438;6.978;2024-03-02T05:36:32;98760.00;;;11.43;61.34
2339;BME280;1180;51.438;6.978;2024-03-02T05:38:57;98754.47;;;11.28;61.57
2339;BME280;1180;51.438;6.978;2024-03-02T05:41:23;98762.97;;;11.29;61.48
2339;BME280;1180;51.438;6.978;2024-03-02T05:43:49;98760.53;;;11.27;62.04
2339;BME280;1180;51.438;6.978;2024-03-02T05:46:14;98777.16;;;11.33;61.99
2339;BME280;1180;51.438;6.978;2024-03-02T05:48:40;98772.69;;;11.35;61.74
2339;BME280;1180;51.438;6.978;2024-03-02T05:51:05;98773.38;;;11.37;61.76
2339;BME280;1180;51.438;6.978;2024-03-02T05:53:30;98770.53;;;11.40;61.88
2339;BME280;1180;51.438;6.978;2024-03-02T05:55:56;98773.13;;;11.30;62.04
2339;BME280;1180;51.438;6.978;2024-03-02T05:58:22;98771.34;;;11.31;61.84
2339;BME280;1180;51.438;6.978;2024-03-02T06:01:06;98759.47;;;11.39;61.78
2339;BME280;1180;51.438;6.978;2024-03-02T06:03:31;98766.38;;;11.29;61.83
2339;BME280;1180;51.438;6.978;2024-03-02T06:05:57;98758.22;;;11.24;62.29
2339;BME280;1180;51.438;6.978;2024-03-02T06:08:22;98773.88;;;11.21;62.14
2339;BME280;1180;51.438;6.978;2024-03-02T06:10:47;98778.63;;;11.25;62.32
2339;BME280;1180;51.438;6.978;2024-03-02T06:13:13;98787.03;;;11.27;62.24
2339;BME280;1180;51.438;6.978;2024-03-02T06:15:38;98790.56;;;11.36;62.37
2339;BME280;1180;51.438;6.978;2024-03-02T06:18:04;98787.59;;;11.31;61.99
2339;BME280;1180;51.438;6.978;2024-03-02T06:20:29;98794.84;;;11.26;62.03
2339;BME280;1180;51.438;6.978;2024-03-02T06:22:57;98788.84;;;11.06;62.71
2339;BME280;1180;51.438;6.978;2024-03-02T06:25:23;98794.53;;;11.09;63.05
2339;BME280;1180;51.438;6.978;2024-03-02T06:27:48;98802.94;;;11.11;62.65
2339;BME280;1180;51.438;6.978;2024-03-02T06:30:14;98810.09;;;11.18;62.75
2339;BME280;1180;51.438;6.978;2024-03-02T06:32:39;98814.56;;;11.16;62.82
2339;BME280;1180;51.438;6.978;2024-03-02T06:35:04;98812.03;;;11.25;62.58
2339;BME280;1180;51.438;6.978;2024-03-02T06:37:33;98806.00;;;11.05;63.00
2339;BME280;1180;51.438;6.978;2024-03-02T06:39:58;98815.03;;;11.00;63.06
2339;BME280;1180;51.438;6.978;2024-03-02T06:42:23;98828.00;;;10.98;63.94
2339;BME280;1180;51.438;6.978;2024-03-02T06:44:49;98819.91;;;11.03;63.36
2339;BME280;1180;51.438;6.978;2024-03-02T06:47:15;98824.94;;;11.04;63.31
2339;BME280;1180;51.438;6.978;2024-03-02T06:49:42;98831.47;;;10.87;64.04
2339;BME280;1180;51.438;6.978;2024-03-02T06:52:07;98831.03;;;11.13;63.84
2339;BME280;1180;51.438;6.978;2024-03-02T06:54:32;98832.00;;;10.91;63.70
2339;BME280;1180;51.438;6.978;2024-03-02T06:57:00;98834.41;;;10.82;64.14
2339;BME280;1180;51.438;6.978;2024-03-02T06:59:25;98842.81;;;10.63;65.06
2339;BME280;1180;51.438;6.978;2024-03-02T07:01:51;98843.56;;;10.75;64.71
2339;BME280;1180;51.438;6.978;2024-03-02T07:04:16;98840.44;;;10.72;64.96
2339;BME280;1180;51.438;6.978;2024-03-02T07:06:41;98839.38;;;10.74;64.95
2339;BME280;1180;51.438;6.978;2024-03-02T07:09:07;98843.25;;;10.68;64.96
2339;BME280;1180;51.438;6.978;2024-03-02T07:11:36;98840.88;;;10.55;65.77
2339;BME280;1180;51.438;6.978;2024-03-02T07:14:01;98844.19;;;10.67;65.49
2339;BME280;1180;51.438;6.978;2024-03-02T07:16:27;98840.25;;;10.63;65.78
2339;BME280;1180;51.438;6.978;2024-03-02T07:18:58;98839.75;;;10.69;65.17
2339;BME280;1180;51.438;6.978;2024-03-02T07:21:24;98847.31;;;10.71;65.93
2339;BME280;1180;51.438;6.978;2024-03-02T07:23:50;98854.88;;;10.94;65.21
2339;BME280;1180;51.438;6.978;2024-03-02T07:26:16;98844.31;;;10.87;64.54
2339;BME280;1180;51.438;6.978;2024-03-02T07:28:46;98845.88;;;11.09;64.93
2339;BME280;1180;51.438;6.978;2024-03-02T07:31:13;98848.06;;;11.14;64.43
2339;BME280;1180;51.438;6.978;2024-03-02T07:33:39;98845.50;;;11.14;63.98
2339;BME280;1180;51.438;6.978;2024-03-02T07:36:04;98861.59;;;11.16;64.02
2339;BME280;1180;51.438;6.978;2024-03-02T07:38:30;98849.22;;;11.31;63.95
2339;BME280;1180;51.438;6.978;2024-03-02T07:40:56;98858.53;;;11.32;63.41
2339;BME280;1180;51.438;6.978;2024-03-02T07:43:21;98857.41;;;11.25;63.50
2339;BME280;1180;51.438;6.978;2024-03-02T07:45:50;98864.63;;;11.41;63.35
2339;BME280;1180;51.438;6.978;2024-03-02T07:48:15;98864.41;;;11.54;63.17
2339;BME280;1180;51.438;6.978;2024-03-02T07:50:41;98860.63;;;11.58;62.71
2339;BME280;1180;51.438;6.978;2024-03-02T07:53:06;98866.28;;;11.52;62.39
2339;BME280;1180;51.438;6.978;2024-03-02T07:55:33;98863.06;;;11.60;62.38
2339;BME280;1180;51.438;6.978;2024-03-02T07:57:59;98861.31;;;11.60;62.47
2339;BME280;1180;51.438;6.978;2024-03-02T08:00:25;98856.34;;;11.68;62.18
2339;BME280;1180;51.438;6.978;2024-03-02T08:02:51;98861.72;;;11.75;62.15
2339;BME280;1180;51.438;6.978;2024-03-02T08:05:17;98875.09;;;11.59;62.38
2339;BME280;1180;51.438;6.978;2024-03-02T08:07:47;98870.66;;;11.71;62.90
2339;BME280;1180;51.438;6.978;2024-03-02T08:10:13;98876.47;;;11.73;61.99
2339;BME280;1180;51.438;6.978;2024-03-02T08:12:39;98892.75;;;11.83;62.19
2339;BME280;1180;51.438;6.978;2024-03-02T08:15:05;98894.63;;;11.81;61.72
2339;BME280;1180;51.438;6.978;2024-03-02T08:17:30;98894.63;;;11.81;62.03
2339;BME280;1180;51.438;6.978;2024-03-02T08:19:56;98898.06;;;12.02;61.47
2339;BME280;1180;51.438;6.978;2024-03-02T08:22:23;98895.91;;;12.07;61.16
2339;BME280;1180;51.438;6.978;2024-03-02T08:24:50;98897.00;;;12.14;61.36
2339;BME280;1180;51.438;6.978;2024-03-02T08:27:15;98900.66;;;12.21;61.10
2339;BME280;1180;51.438;6.978;2024-03-02T08:29:41;98892.94;;;12.31;61.02
2339;BME280;1180;51.438;6.978;2024-03-02T08:32:08;98887.78;;;12.31;60.72
2339;BME280;1180;51.438;6.978;2024-03-02T08:34:33;98892.25;;;12.29;61.02
2339;BME280;1180;51.438;6.978;2024-03-02T08:37:04;98890.78;;;12.26;60.75
2339;BME280;1180;51.438;6.978;2024-03-02T08:39:30;98892.53;;;12.26;61.11
2339;BME280;1180;51.438;6.978;2024-03-02T08:41:55;98893.88;;;12.30;60.43
2339;BME280;1180;51.438;6.978;2024-03-02T08:44:21;98892.25;;;12.39;60.60
2339;BME280;1180;51.438;6.978;2024-03-02T08:46:47;98893.47;;;12.35;60.45
2339;BME280;1180;51.438;6.978;2024-03-02T08:49:13;98897.00;;;12.44;60.26
2339;BME280;1180;51.438;6.978;2024-03-02T08:51:39;98891.84;;;12.53;59.95
2339;BME280;1180;51.438;6.978;2024-03-02T08:54:07;98893.72;;;12.51;59.93
2339;BME280;1180;51.438;6.978;2024-03-02T08:56:32;98891.16;;;12.61;60.10
2339;BME280;1180;51.438;6.978;2024-03-02T08:58:57;98896.03;;;12.54;59.93
2339;BME280;1180;51.438;6.978;2024-03-02T09:01:23;98895.34;;;12.62;59.98
2339;BME280;1180;51.438;6.978;2024-03-02T09:03:49;98900.88;;;12.67;59.64
2339;BME280;1180;51.438;6.978;2024-03-02T09:06:14;98902.66;;;12.67;59.61
2339;BME280;1180;51.438;6.978;2024-03-02T09:08:43;98903.47;;;12.57;59.37
2339;BME280;1180;51.438;6.978;2024-03-02T09:11:09;98902.66;;;12.57;59.65
2339;BME280;1180;51.438;6.978;2024-03-02T09:13:35;98904.41;;;12.66;59.93
2339;BME280;1180;51.438;6.978;2024-03-02T09:16:01;98900.59;;;12.70;59.45
2339;BME280;1180;51.438;6.978;2024-03-02T09:18:27;98908.47;;;12.69;59.57
2339;BME280;1180;51.438;6.978;2024-03-02T09:20:53;98908.09;;;12.54;59.83
2339;BME280;1180;51.438;6.978;2024-03-02T09:23:18;98917.69;;;12.71;59.53
2339;BME280;1180;51.438;6.978;2024-03-02T09:25:43;98908.09;;;12.64;59.61
2339;BME280;1180;51.438;6.978;2024-03-02T09:28:10;98917.53;;;12.83;59.12
2339;BME280;1180;51.438;6.978;2024-03-02T09:30:35;98912.25;;;12.84;58.91
2339;BME280;1180;51.438;6.978;2024-03-02T09:33:00;98909.09;;;12.91;58.83
2339;BME280;1180;51.438;6.978;2024-03-02T09:35:26;98917.25;;;12.96;58.54
2339;BME280;1180;51.438;6.978;2024-03-02T09:37:51;98910.34;;;12.86;58.61
2339;BME280;1180;51.438;6.978;2024-03-02T09:40:16;98910.19;;;12.98;58.92
2339;BME280;1180;51.438;6.978;2024-03-02T09:42:42;98910.59;;;13.03;57.84
2339;BME280;1180;51.438;6.978;2024-03-02T09:45:09;98900.13;;;13.05;58.33
2339;BME280;1180;51.438;6.978;2024-03-02T09:47:34;98903.34;;;13.17;58.19
2339;BME280;1180;51.438;6.978;2024-03-02T09:50:00;98905.78;;;13.18;58.07
2339;BME280;1180;51.438;6.978;2024-03-02T09:52:25;98907.53;;;13.18;57.44
2339;BME280;1180;51.438;6.978;2024-03-02T09:54:51;98904.44;;;13.14;57.46
2339;BME280;1180;51.438;6.978;2024-03-02T09:57:16;98904.69;;;13.21;57.58
2339;BME280;1180;51.438;6.978;2024-03-02T09:59:42;98898.81;;;13.28;57.47
2339;BME280;1180;51.438;6.978;2024-03-02T10:02:07;98897.38;;;13.26;57.13
2339;BME280;1180;51.438;6.978;2024-03-02T10:04:33;98903.84;;;13.30;56.82
2339;BME280;1180;51.438;6.978;2024-03-02T10:07:13;98902.72;;;13.42;56.96
2339;BME280;1180;51.438;6.978;2024-03-02T10:09:40;98895.28;;;13.29;57.29
2339;BME280;1180;51.438;6.978;2024-03-02T10:12:07;98898.91;;;13.47;56.68
2339;BME280;1180;51.438;6.978;2024-03-02T10:14:33;98898.19;;;13.54;56.61
2339;BME280;1180;51.438;6.978;2024-03-02T10:17:03;98894.91;;;13.62;56.31
2339;BME280;1180;51.438;6.978;2024-03-02T10:19:29;98889.75;;;13.62;55.91
2339;BME280;1180;51.438;6.978;2024-03-02T10:21:58;98886.66;;;13.58;55.55
2339;BME280;1180;51.438;6.978;2024-03-02T10:24:24;98893.00;;;13.64;55.64
2339;BME280;1180;51.438;6.978;2024-03-02T10:26:51;98882.88;;;13.53;55.53
2339;BME280;1180;51.438;6.978;2024-03-02T10:29:17;98890.47;;;13.54;56.03
2339;BME280;1180;51.438;6.978;2024-03-02T10:31:46;98892.72;;;13.67;56.00
2339;BME280;1180;51.438;6.978;2024-03-02T10:34:12;98885.47;;;13.71;56.02
2339;BME280;1180;51.438;6.978;2024-03-02T10:36:41;98880.84;;;13.75;55.12
2339;BME280;1180;51.438;6.978;2024-03-02T10:39:08;98876.06;;;13.80;54.73
2339;BME280;1180;51.438;6.978;2024-03-02T10:41:35;98886.63;;;13.86;54.99
2339;BME280;1180;51.438;6.978;2024-03-02T10:44:07;98885.00;;;14.04;54.79
2339;BME280;1180;51.438;6.978;2024-03-02T10:46:34;98889.88;;;14.07;55.27
2339;BME280;1180;51.438;6.978;2024-03-02T10:49:01;98876.00;;;14.08;55.17
2339;BME280;1180;51.438;6.978;2024-03-02T10:51:28;98878.53;;;14.18;54.75
2339;BME280;1180;51.438;6.978;2024-03-02T10:53:57;98879.78;;;14.32;55.07
2339;BME280;1180;51.438;6.978;2024-03-02T11:01:37;98864.56;;;14.47;54.25
2339;BME280;1180;51.438;6.978;2024-03-02T11:04:04;98863.47;;;14.57;53.44
2339;BME280;1180;51.438;6.978;2024-03-02T11:06:33;98868.59;;;14.49;54.25
2339;BME280;1180;51.438;6.978;2024-03-02T11:09:06;98859.44;;;14.55;53.21
2339;BME280;1180;51.438;6.978;2024-03-02T11:11:37;98862.38;;;14.60;52.69
2339;BME280;1180;51.438;6.978;2024-03-02T11:14:04;98870.72;;;14.72;52.57
2339;BME280;1180;51.438;6.978;2024-03-02T11:16:35;98863.56;;;14.66;52.88
2339;BME280;1180;51.438;6.978;2024-03-02T11:19:05;98865.19;;;14.67;52.71
2339;BME280;1180;51.438;6.978;2024-03-02T11:21:33;98867.59;;;14.68;52.48
2339;BME280;1180;51.438;6.978;2024-03-02T11:23:59;98868.94;;;14.72;52.35
2339;BME280;1180;51.438;6.978;2024-03-02T11:26:26;98861.09;;;14.82;51.77
2339;BME280;1180;51.438;6.978;2024-03-02T11:28:53;98857.78;;;14.98;51.97
2339;BME280;1180;51.438;6.978;2024-03-02T11:31:19;98850.84;;;14.99;51.36
2339;BME280;1180;51.438;6.978;2024-03-02T11:33:44;98848.63;;;15.04;51.51
2339;BME280;1180;51.438;6.978;2024-03-02T11:36:10;98858.78;;;15.06;51.88
2339;BME280;1180;51.438;6.978;2024-03-02T11:38:35;98845.44;;;15.19;51.76
2339;BME280;1180;51.438;6.978;2024-03-02T11:41:02;98845.44;;;15.19;51.39
2339;BME280;1180;51.438;6.978;2024-03-02T11:43:32;98855.09;;;15.08;51.16
2339;BME280;1180;51.438;6.978;2024-03-02T11:46:03;98851.63;;;14.91;51.97
2339;BME280;1180;51.438;6.978;2024-03-02T11:48:32;98850.53;;;15.02;51.73
2339;BME280;1180;51.438;6.978;2024-03-02T11:50:58;98847.72;;;15.22;51.43
2339;BME280;1180;51.438;6.978;2024-03-02T11:53:27;98843.88;;;15.34;51.27
2339;BME280;1180;51.438;6.978;2024-03-02T11:55:55;98849.09;;;15.51;50.80
2339;BME280;1180;51.438;6.978;2024-03-02T11:58:21;98839.84;;;15.40;50.53
2339;BME280;1180;51.438;6.978;2024-03-02T12:00:55;98841.06;;;15.62;50.42
2339;BME280;1180;51.438;6.978;2024-03-02T12:03:23;98846.91;;;15.81;49.65
2339;BME280;1180;51.438;6.978;2024-03-02T12:05:50;98833.50;;;15.85;49.42
2339;BME280;1180;51.438;6.978;2024-03-02T12:08:16;98831.56;;;15.87;49.46
2339;BME280;1180;51.438;6.978;2024-03-02T12:10:41;98826.19;;;15.81;49.61
2339;BME280;1180;51.438;6.978;2024-03-02T12:13:07;98827.88;;;15.98;49.98
2339;BME280;1180;51.438;6.978;2024-03-02T12:15:36;98818.16;;;16.09;49.21
2339;BME280;1180;51.438;6.978;2024-03-02T12:18:05;98816.84;;;15.88;49.43
2339;BME280;1180;51.438;6.978;2024-03-02T12:20:33;98815.88;;;15.89;49.10
2339;BME280;1180;51.438;6.978;2024-03-02T12:23:00;98812.44;;;15.72;50.07
2339;BME280;1180;51.438;6.978;2024-03-02T12:25:27;98822.13;;;15.62;50.52
2339;BME280;1180;51.438;6.978;2024-03-02T12:27:57;98813.00;;;15.92;50.36
2339;BME280;1180;51.438;6.978;2024-03-02T12:30:23;98812.34;;;16.15;49.95
2339;BME280;1180;51.438;6.978;2024-03-02T12:32:49;98814.09;;;16.31;49.71
2339;BME280;1180;51.438;6.978;2024-03-02T12:35:15;98802.94;;;16.39;49.25
2339;BME280;1180;51.438;6.978;2024-03-02T12:37:47;98795.31;;;16.37;48.68
2339;BME280;1180;51.438;6.978;2024-03-02T12:40:13;98798.88;;;16.36;48.53
2339;BME280;1180;51.438;6.978;2024-03-02T12:42:41;98791.28;;;16.35;49.26
2339;BME280;1180;51.438;6.978;2024-03-02T12:45:09;98794.19;;;16.40;48.88
2339;BME280;1180;51.438;6.978;2024-03-02T12:47:35;98792.84;;;16.52;48.33
2339;BME280;1180;51.438;6.978;2024-03-02T12:50:01;98787.50;;;16.62;48.43
2339;BME280;1180;51.438;6.978;2024-03-02T12:52:27;98787.53;;;16.54;48.07
2339;BME280;1180;51.438;6.978;2024-03-02T12:54:52;98781.06;;;16.50;47.83
2339;BME280;1180;51.438;6.978;2024-03-02T12:57:25;98777.03;;;16.39;48.77
2339;BME280;1180;51.438;6.978;2024-03-02T12:59:51;98785.63;;;16.31;48.74
2339;BME280;1180;51.438;6.978;2024-03-02T13:02:18;98784.34;;;16.43;49.33
2339;BME280;1180;51.438;6.978;2024-03-02T13:04:43;98783.16;;;16.46;49.26
2339;BME280;1180;51.438;6.978;2024-03-02T13:07:11;98782.22;;;16.39;49.04
2339;BME280;1180;51.438;6.978;2024-03-02T13:09:38;98784.81;;;16.39;49.72
2339;BME280;1180;51.438;6.978;2024-03-02T13:12:04;98778.94;;;16.53;49.51
2339;BME280;1180;51.438;6.978;2024-03-02T13:14:35;98779.44;;;16.57;49.38
2339;BME280;1180;51.438;6.978;2024-03-02T13:17:01;98775.72;;;16.51;49.33
2339;BME280;1180;51.438;6.978;2024-03-02T13:19:29;98779.78;;;16.45;49.78
2339;BME280;1180;51.438;6.978;2024-03-02T13:21:56;98772.47;;;16.49;49.17
2339;BME280;1180;51.438;6.978;2024-03-02T13:24:22;98773.91;;;16.60;49.06